This is the latest recevied weather packets stored in our database for station/object KC9DRE. If no packets are shown the sender has not sent any weather packets the latest 10 day(s).
| Time | Temp. | Humidity | Pressure | Rain* | Wind** | Luminosity | Snow |
|---|---|---|---|---|---|---|---|
| 1777606099 | 5° C | 95% | 1015.6 hPa | 0 mm | - | 0 W/m² | - |
| 1777605796 | 5° C | 95% | 1015.8 hPa | 0 mm | - | 0 W/m² | - |
| 1777605495 | 5° C | 95% | 1015.8 hPa | 0 mm | - | 0 W/m² | - |
| 1777605191 | 5° C | 94% | 1015.9 hPa | 0 mm | - | 0 W/m² | - |
| 1777604887 | 5° C | 94% | 1016.1 hPa | 0 mm | - | 0 W/m² | - |
| 1777604583 | 5° C | 94% | 1016.2 hPa | 0 mm | - | 0 W/m² | - |
| 1777604279 | 5° C | 94% | 1016.1 hPa | 0 mm | - | 0 W/m² | - |
| 1777603974 | 5.56° C | 94% | 1016.4 hPa | 0 mm | - | 0 W/m² | - |
| 1777603671 | 5.56° C | 94% | 1016.4 hPa | 0 mm | - | 0 W/m² | - |
| 1777603368 | 5.56° C | 94% | 1016.2 hPa | 0 mm | - | 0 W/m² | - |
| 1777603064 | 5.56° C | 94% | 1016.3 hPa | 0 mm | - | 0 W/m² | - |
| 1777602759 | 5.56° C | 93% | 1016.2 hPa | 0 mm | - | 0 W/m² | - |
| 1777602454 | 6.11° C | 93% | 1016.1 hPa | 0 mm | - | 0 W/m² | - |
| 1777602151 | 6.11° C | 93% | 1016.1 hPa | 0 mm | - | 0 W/m² | - |
| 1777601845 | 6.11° C | 93% | 1016.1 hPa | 0 mm | - | 0 W/m² | - |
| 1777601237 | 6.11° C | 92% | 1016.1 hPa | 0 mm | - | 0 W/m² | - |
| 1777600935 | 6.67° C | 91% | 1016.2 hPa | 0 mm | - | 0 W/m² | - |
| 1777587285 | 17.22° C | 38% | 1015.6 hPa | 0 mm | - | 263 W/m² | - |
| 1777585465 | 16.11° C | 40% | 1015.5 hPa | 0 mm | - | 386 W/m² | - |
| 1777584554 | 16.67° C | 40% | 1015.9 hPa | 0 mm | - | 429 W/m² | - |
| 1777584251 | 17.22° C | 38% | 1015.7 hPa | 0 mm | - | 452 W/m² | - |
| 1777583950 | 17.22° C | 37% | 1015.8 hPa | 0 mm | - | 500 W/m² | - |
| 1777583646 | 17.78° C | 37% | 1016.2 hPa | 0 mm | - | 515 W/m² | - |
| 1777582737 | 16.11° C | 39% | 1016.1 hPa | 0 mm | - | 538 W/m² | - |
| 1777582127 | 16.67° C | 41% | 1016.2 hPa | 0 mm | - | 566 W/m² | - |
* Rain latest hour (hover to see other rain measurements)
** Current wind speed in m/s (hover to see current wind gust speed)